Time;durP1;ratioP1;P1;durP2;ratioP2;P2;SDS_P1;SDS_P2;PMS_P1;PMS_P2;Temp;Humidity;BMP_temperature;BMP_pressure;BME280_temperature;BME280_humidity;BME280_pressure;Samples;Min_cycle;Max_cycle;Signal;HPM_P1;HPM_P2
2024/02/21 00:01:40;;;;;;;;;;;;;;;;;;5043447;28;20007;-81
2024/02/21 00:04:06;;;;;;;;;;;;;;;;;;5027188;28;19913;-81
2024/02/21 00:06:32;;;;;;;;;;;;;;;;;;5048245;28;19917;-81
2024/02/21 00:08:57;;;;;;;;;;;;;;;;;;5047550;28;19920;-81
2024/02/21 00:11:23;;;;;;;;;;;;;;;;;;5047236;28;19919;-81
2024/02/21 00:13:50;;;;;;;;;;;;;;;;;;5045276;28;19913;-81
2024/02/21 00:16:16;;;;;;;;;;;;;;;;;;5045776;28;20082;-81
2024/02/21 00:18:42;;;;;;;;;;;;;;;;;;5046878;28;19952;-82
2024/02/21 00:21:08;;;;;;;;;;;;;;;;;;5050977;28;19955;-81
2024/02/21 00:23:34;;;;;;;;;;;;;;;;;;5046641;28;19956;-81
2024/02/21 00:25:59;;;;;;;;;;;;;;;;;;5056919;28;19913;-81
2024/02/21 00:28:25;;;;;;;;;;;;;;;;;;5046486;28;19921;-80
2024/02/21 00:30:52;;;;;;;;;;;;;;;;;;5046989;28;19963;-81
2024/02/21 00:33:18;;;;;;;;;;;;;;;;;;5046279;28;19913;-82
2024/02/21 00:35:44;;;;;;;;;;;;;;;;;;5043630;28;19936;-81
2024/02/21 00:38:10;;;;;;;;;;;;;;;;;;5048285;28;19913;-82
2024/02/21 00:40:36;;;;;;;;;;;;;;;;;;5058529;28;19912;-82
2024/02/21 00:43:02;;;;;;;;;;;;;;;;;;5049785;28;20007;-81
2024/02/21 00:45:28;;;;;;;;;;;;;;;;;;5044546;28;19913;-82
2024/02/21 00:47:54;;;;;;;;;;;;;;;;;;5046495;28;20283;-81
2024/02/21 00:50:20;;;;;;;;;;;;;;;;;;5046316;28;19923;-81
2024/02/21 00:52:46;;;;;;;;;;;;;;;;;;5053505;28;19913;-81
2024/02/21 00:55:12;;;;;;;;;;;;;;;;;;5046547;28;19921;-80
2024/02/21 00:57:38;;;;;;;;;;;;;;;;;;5050407;28;19919;-81
2024/02/21 01:00:03;;;;;;;;;;;;;;;;;;5047373;28;20398;-81
2024/02/21 01:02:32;;;;;;;;;;;;;;;;;;5041554;28;19913;-81
2024/02/21 01:04:58;;;;;;;;;;;;;;;;;;5050145;28;19916;-81
2024/02/21 01:07:24;;;;;;;;;;;;;;;;;;5046921;28;19916;-81
2024/02/21 01:09:53;;;;;;;;;;;;;;;;;;5046886;28;19983;-81
2024/02/21 01:12:19;;;;;;;;;;;;;;;;;;5048038;28;20296;-81
2024/02/21 01:14:46;;;;;;;;;;;;;;;;;;5050304;28;19924;-81
2024/02/21 01:17:11;;;;;;;;;;;;;;;;;;5047818;28;19924;-81
2024/02/21 01:19:38;;;;;;;;;;;;;;;;;;5050720;28;20351;-81
2024/02/21 01:22:04;;;;;;;;;;;;;;;;;;5046981;28;19959;-81
2024/02/21 01:24:30;;;;;;;;;;;;;;;;;;5047330;28;20005;-80
2024/02/21 01:26:55;;;;;;;;;;;;;;;;;;5049167;28;20340;-81
2024/02/21 01:29:21;;;;;;;;;;;;;;;;;;5052558;28;19927;-81
2024/02/21 01:31:47;;;;;;;;;;;;;;;;;;5053271;28;20039;-81
2024/02/21 01:34:13;;;;;;;;;;;;;;;;;;5052706;28;19942;-81
2024/02/21 01:36:39;;;;;;;;;;;;;;;;;;5047607;28;19924;-81
2024/02/21 01:39:05;;;;;;;;;;;;;;;;;;5047888;28;19912;-81
2024/02/21 01:41:31;;;;;;;;;;;;;;;;;;5047673;28;20294;-81
2024/02/21 01:43:57;;;;;;;;;;;;;;;;;;5054545;28;19924;-80
2024/02/21 01:46:23;;;;;;;;;;;;;;;;;;5040324;28;19913;-81
2024/02/21 01:48:48;;;;;;;;;;;;;;;;;;5044967;28;19952;-80
2024/02/21 01:51:14;;;;;;;;;;;;;;;;;;5050707;28;20372;-81
2024/02/21 01:53:40;;;;;;;;;;;;;;;;;;5048412;28;20582;-81
2024/02/21 01:56:06;;;;;;;;;;;;;;;;;;5047699;28;20384;-81
2024/02/21 01:58:32;;;;;;;;;;;;;;;;;;5053988;28;19936;-80
2024/02/21 02:00:57;;;;;;;;;;;;;;;;;;5047447;28;19919;-81
2024/02/21 02:03:25;;;;;;;;;;;;;;;;;;5050971;28;19917;-81
2024/02/21 02:05:51;;;;;;;;;;;;;;;;;;5053209;28;20623;-79
2024/02/21 02:08:17;;;;;;;;;;;;;;;;;;5049858;28;19935;-82
2024/02/21 02:10:43;;;;;;;;;;;;;;;;;;5047891;28;20341;-82
2024/02/21 02:13:08;;;;;;;;;;;;;;;;;;5052887;28;19966;-82
2024/02/21 02:15:34;;;;;;;;;;;;;;;;;;5050842;28;19924;-82
2024/02/21 02:18:00;;;;;;;;;;;;;;;;;;5051386;28;20007;-82
2024/02/21 02:20:26;;;;;;;;;;;;;;;;;;5051259;28;19913;-82
2024/02/21 02:22:52;;;;;;;;;;;;;;;;;;5057524;28;19952;-81
2024/02/21 02:25:18;;;;;;;;;;;;;;;;;;5051373;28;19920;-82
2024/02/21 02:27:44;;;;;;;;;;;;;;;;;;5050036;28;19968;-82
2024/02/21 02:30:10;;;;;;;;;;;;;;;;;;5051258;28;20320;-82
2024/02/21 02:32:36;;;;;;;;;;;;;;;;;;5049966;28;19998;-83
2024/02/21 02:35:02;;;;;;;;;;;;;;;;;;5048051;28;19913;-83
2024/02/21 02:37:28;;;;;;;;;;;;;;;;;;5051598;28;20315;-82
2024/02/21 02:39:54;;;;;;;;;;;;;;;;;;5050999;28;20410;-82
2024/02/21 02:42:19;;;;;;;;;;;;;;;;;;5050298;28;20248;-82
2024/02/21 02:44:45;;;;;;;;;;;;;;;;;;5054817;28;20279;-82
2024/02/21 02:47:11;;;;;;;;;;;;;;;;;;5054171;28;20000;-83
2024/02/21 02:49:37;;;;;;;;;;;;;;;;;;5051143;28;19913;-82
2024/02/21 02:52:03;;;;;;;;;;;;;;;;;;5050367;28;19975;-82
2024/02/21 02:54:28;;;;;;;;;;;;;;;;;;5050095;28;19913;-83
2024/02/21 02:56:54;;;;;;;;;;;;;;;;;;5048633;28;19917;-82
2024/02/21 02:59:20;;;;;;;;;;;;;;;;;;5051918;28;19916;-82
2024/02/21 03:01:46;;;;;;;;;;;;;;;;;;5049545;28;19965;-82
2024/02/21 03:04:12;;;;;;;;;;;;;;;;;;5049679;28;19917;-81
2024/02/21 03:06:38;;;;;;;;;;;;;;;;;;5046629;28;20337;-82
2024/02/21 03:09:08;;;;;;;;;;;;;;;;;;5049502;28;19917;-81
2024/02/21 03:11:34;;;;;;;;;;;;;;;;;;5050105;28;19960;-81
2024/02/21 03:14:00;;;;;;;;;;;;;;;;;;5048662;28;19959;-81
2024/02/21 03:16:26;;;;;;;;;;;;;;;;;;5047658;28;19921;-81
2024/02/21 03:18:51;;;;;;;;;;;;;;;;;;5048669;28;19921;-80
2024/02/21 03:21:17;;;;;;;;;;;;;;;;;;5045159;28;19913;-81
2024/02/21 03:23:43;;;;;;;;;;;;;;;;;;5047910;28;19913;-80
2024/02/21 03:26:09;;;;;;;;;;;;;;;;;;5048771;28;19952;-81
2024/02/21 03:28:35;;;;;;;;;;;;;;;;;;5048968;28;19921;-82
2024/02/21 03:31:01;;;;;;;;;;;;;;;;;;5047395;28;19923;-83
2024/02/21 03:33:26;;;;;;;;;;;;;;;;;;5053847;28;19913;-83
2024/02/21 03:35:52;;;;;;;;;;;;;;;;;;5046898;28;19927;-82
2024/02/21 03:38:18;;;;;;;;;;;;;;;;;;5048112;28;19912;-83
2024/02/21 03:40:44;;;;;;;;;;;;;;;;;;5046618;28;19924;-82
2024/02/21 03:43:10;;;;;;;;;;;;;;;;;;5048862;28;19908;-83
2024/02/21 03:45:36;;;;;;;;;;;;;;;;;;5047574;28;19964;-82
2024/02/21 03:48:02;;;;;;;;;;;;;;;;;;5048061;28;19961;-83
2024/02/21 03:50:28;;;;;;;;;;;;;;;;;;5049044;28;19919;-83
2024/02/21 03:52:54;;;;;;;;;;;;;;;;;;5050935;28;19916;-82
2024/02/21 03:55:20;;;;;;;;;;;;;;;;;;5043296;28;19942;-83
2024/02/21 03:57:46;;;;;;;;;;;;;;;;;;5048762;28;20042;-83
2024/02/21 04:00:12;;;;;;;;;;;;;;;;;;5045751;28;19916;-82
2024/02/21 04:02:38;;;;;;;;;;;;;;;;;;5045526;28;20368;-83
2024/02/21 04:05:04;;;;;;;;;;;;;;;;;;5048475;28;20464;-82
2024/02/21 04:07:30;;;;;;;;;;;;;;;;;;5047149;28;20015;-82
2024/02/21 04:09:56;;;;;;;;;;;;;;;;;;5046388;28;20029;-83
2024/02/21 04:12:22;;;;;;;;;;;;;;;;;;5048404;28;19920;-83
2024/02/21 04:14:48;;;;;;;;;;;;;;;;;;5047542;28;19958;-82
2024/02/21 04:17:14;;;;;;;;;;;;;;;;;;5046061;28;19921;-82
2024/02/21 04:19:39;;;;;;;;;;;;;;;;;;5054117;28;19921;-82
2024/02/21 04:22:05;;;;;;;;;;;;;;;;;;5047036;28;20483;-82
2024/02/21 04:24:31;;;;;;;;;;;;;;;;;;5047252;28;20545;-81
2024/02/21 04:26:57;;;;;;;;;;;;;;;;;;5045243;28;20299;-82
2024/02/21 04:29:23;;;;;;;;;;;;;;;;;;5047693;28;20417;-82
2024/02/21 04:31:49;;;;;;;;;;;;;;;;;;5045186;28;19959;-82
2024/02/21 04:34:15;;;;;;;;;;;;;;;;;;5044024;28;19925;-81
2024/02/21 04:36:41;;;;;;;;;;;;;;;;;;5045731;28;19959;-81
2024/02/21 04:39:07;;;;;;;;;;;;;;;;;;5047587;28;19913;-81
2024/02/21 04:41:33;;;;;;;;;;;;;;;;;;5047200;28;19917;-81
2024/02/21 04:43:59;;;;;;;;;;;;;;;;;;5047413;28;19917;-80
2024/02/21 04:46:25;;;;;;;;;;;;;;;;;;5045570;28;19920;-82
2024/02/21 04:48:51;;;;;;;;;;;;;;;;;;5062651;28;19909;-81
2024/02/21 04:51:17;;;;;;;;;;;;;;;;;;5045221;28;19999;-82
2024/02/21 04:53:43;;;;;;;;;;;;;;;;;;5047614;28;19966;-83
2024/02/21 04:56:08;;;;;;;;;;;;;;;;;;5046584;28;20290;-82
2024/02/21 04:58:34;;;;;;;;;;;;;;;;;;5047545;28;19919;-82
2024/02/21 05:01:00;;;;;;;;;;;;;;;;;;5043222;28;19939;-82
2024/02/21 05:03:26;;;;;;;;;;;;;;;;;;5042495;28;19913;-82
2024/02/21 05:05:52;;;;;;;;;;;;;;;;;;5054400;28;19924;-82
2024/02/21 05:08:18;;;;;;;;;;;;;;;;;;5048504;28;19912;-83
2024/02/21 05:10:44;;;;;;;;;;;;;;;;;;5052365;28;19921;-82
2024/02/21 05:13:10;;;;;;;;;;;;;;;;;;5061868;28;19947;-83
2024/02/21 05:15:35;;;;;;;;;;;;;;;;;;5061413;28;19917;-82
2024/02/21 05:18:01;;;;;;;;;;;;;;;;;;5048115;28;19962;-82
2024/02/21 05:20:27;;;;;;;;;;;;;;;;;;5053716;28;19916;-82
2024/02/21 05:22:53;;;;;;;;;;;;;;;;;;5047354;28;19920;-82
2024/02/21 05:25:19;;;;;;;;;;;;;;;;;;5029270;28;19924;-82
2024/02/21 05:27:45;;;;;;;;;;;;;;;;;;5046571;28;19981;-82
2024/02/21 05:30:11;;;;;;;;;;;;;;;;;;5048234;28;19913;-82
2024/02/21 05:32:37;;;;;;;;;;;;;;;;;;5048391;28;20402;-82
2024/02/21 05:35:03;;;;;;;;;;;;;;;;;;5046472;28;20299;-81
2024/02/21 05:37:28;;;;;;;;;;;;;;;;;;5051799;28;20328;-82
2024/02/21 05:39:54;;;;;;;;;;;;;;;;;;5046848;28;20391;-82
2024/02/21 05:42:20;;;;;;;;;;;;;;;;;;5050101;28;20395;-83
2024/02/21 05:44:46;;;;;;;;;;;;;;;;;;5050834;28;20288;-81
2024/02/21 05:47:15;;;;;;;;;;;;;;;;;;5050703;28;20358;-82
2024/02/21 05:49:40;;;;;;;;;;;;;;;;;;5058994;28;19910;-82
2024/02/21 05:52:06;;;;;;;;;;;;;;;;;;5064813;28;19994;-82
2024/02/21 05:54:32;;;;;;;;;;;;;;;;;;5049727;28;19927;-85
2024/02/21 05:56:58;;;;;;;;;;;;;;;;;;5050282;28;19920;-82
2024/02/21 05:59:24;;;;;;;;;;;;;;;;;;5051405;28;20344;-81
2024/02/21 06:01:50;;;;;;;;;;;;;;;;;;5065131;28;20298;-81
2024/02/21 06:04:15;;;;;;;;;;;;;;;;;;5051067;28;20409;-81
2024/02/21 06:06:41;;;;;;;;;;;;;;;;;;5049407;28;19912;-80
2024/02/21 06:09:07;;;;;;;;;;;;;;;;;;5050867;28;19978;-83
2024/02/21 06:11:34;;;;;;;;;;;;;;;;;;5050903;28;19935;-80
2024/02/21 06:14:00;;;;;;;;;;;;;;;;;;5049208;28;19912;-80
2024/02/21 06:16:26;;;;;;;;;;;;;;;;;;5042973;28;20372;-81
2024/02/21 06:18:52;;;;;;;;;;;;;;;;;;5049903;28;19917;-81
2024/02/21 06:21:18;;;;;;;;;;;;;;;;;;5063363;28;19916;-83
2024/02/21 06:23:44;;;;;;;;;;;;;;;;;;5047707;28;20299;-82
2024/02/21 06:26:09;;;;;;;;;;;;;;;;;;5061259;28;19943;-81
2024/02/21 06:28:35;;;;;;;;;;;;;;;;;;5060636;28;19920;-81
2024/02/21 06:31:01;;;;;;;;;;;;;;;;;;5055131;28;19955;-81
2024/02/21 06:33:27;;;;;;;;;;;;;;;;;;5050347;28;20359;-81
2024/02/21 06:35:53;;;;;;;;;;;;;;;;;;5049879;28;20290;-81
2024/02/21 06:38:19;;;;;;;;;;;;;;;;;;5050053;28;20011;-81
2024/02/21 06:40:49;;;;;;;;;;;;;;;;;;5050775;28;19919;-81
2024/02/21 06:43:15;;;;;;;;;;;;;;;;;;5050602;28;19988;-81
2024/02/21 06:45:41;;;;;;;;;;;;;;;;;;5050755;28;19952;-81
2024/02/21 06:48:07;;;;;;;;;;;;;;;;;;5050554;28;19983;-81
2024/02/21 06:50:33;;;;;;;;;;;;;;;;;;5051580;28;19909;-82
2024/02/21 06:52:59;;;;;;;;;;;;;;;;;;5049831;28;20264;-81
2024/02/21 06:55:25;;;;;;;;;;;;;;;;;;5050769;28;19944;-82
2024/02/21 06:57:51;;;;;;;;;;;;;;;;;;5050611;28;19917;-81
2024/02/21 07:00:16;;;;;;;;;;;;;;;;;;5050344;28;19999;-81
2024/02/21 07:02:42;;;;;;;;;;;;;;;;;;5050513;28;19917;-81
2024/02/21 07:05:08;;;;;;;;;;;;;;;;;;5050337;28;19909;-81
2024/02/21 07:07:35;;;;;;;;;;;;;;;;;;5048093;28;19927;-81
2024/02/21 07:10:01;;;;;;;;;;;;;;;;;;5049843;28;20392;-82
2024/02/21 07:12:26;;;;;;;;;;;;;;;;;;5050433;28;19908;-82
2024/02/21 07:14:52;;;;;;;;;;;;;;;;;;5043495;28;20268;-82
2024/02/21 07:17:18;;;;;;;;;;;;;;;;;;5048777;28;19935;-82
2024/02/21 07:19:44;;;;;;;;;;;;;;;;;;5049483;28;19917;-82
2024/02/21 07:22:10;;;;;;;;;;;;;;;;;;5049289;28;19990;-81
2024/02/21 07:24:37;;;;;;;;;;;;;;;;;;5049397;28;19912;-82
2024/02/21 07:27:04;;;;;;;;;;;;;;;;;;5049472;28;19913;-81
2024/02/21 07:29:30;;;;;;;;;;;;;;;;;;5047072;28;20430;-81
2024/02/21 07:31:56;;;;;;;;;;;;;;;;;;5050215;28;19948;-83
2024/02/21 07:34:21;;;;;;;;;;;;;;;;;;5050292;28;19913;-82
2024/02/21 07:36:47;;;;;;;;;;;;;;;;;;5049436;28;20293;-81
2024/02/21 07:39:13;;;;;;;;;;;;;;;;;;5049268;28;19913;-83
2024/02/21 07:41:41;;;;;;;;;;;;;;;;;;5050113;28;19909;-83
2024/02/21 07:44:07;;;;;;;;;;;;;;;;;;5049365;28;19920;-83
2024/02/21 07:46:32;;;;;;;;;;;;;;;;;;5048108;28;19913;-83
2024/02/21 07:48:58;;;;;;;;;;;;;;;;;;5048651;28;20390;-84
2024/02/21 07:51:24;;;;;;;;;;;;;;;;;;5049287;28;19988;-83
2024/02/21 07:53:50;;;;;;;;;;;;;;;;;;5046545;28;19917;-84
2024/02/21 07:56:16;;;;;;;;;;;;;;;;;;5048257;28;19970;-83
2024/02/21 07:58:42;;;;;;;;;;;;;;;;;;5048510;28;19920;-83
2024/02/21 08:01:08;;;;;;;;;;;;;;;;;;5048332;28;19999;-83
2024/02/21 08:03:34;;;;;;;;;;;;;;;;;;5054197;28;19917;-83
2024/02/21 08:06:00;;;;;;;;;;;;;;;;;;5049547;28;19917;-83
2024/02/21 08:08:26;;;;;;;;;;;;;;;;;;5047706;28;20364;-82
2024/02/21 08:10:52;;;;;;;;;;;;;;;;;;5048665;28;20335;-83
2024/02/21 08:13:18;;;;;;;;;;;;;;;;;;5044910;28;19913;-83
2024/02/21 08:15:43;;;;;;;;;;;;;;;;;;5051384;28;20276;-89
2024/02/21 08:18:09;;;;;;;;;;;;;;;;;;5051009;28;19943;-84
2024/02/21 08:20:35;;;;;;;;;;;;;;;;;;5049062;28;20502;-83
2024/02/21 08:23:01;;;;;;;;;;;;;;;;;;5050523;28;20621;-84
2024/02/21 08:25:27;;;;;;;;;;;;;;;;;;5048700;28;19912;-84
2024/02/21 08:27:53;;;;;;;;;;;;;;;;;;5049860;28;19982;-84
2024/02/21 08:30:20;;;;;;;;;;;;;;;;;;5049886;28;19913;-87
2024/02/21 08:32:45;;;;;;;;;;;;;;;;;;5050779;28;19916;-82
2024/02/21 08:35:12;;;;;;;;;;;;;;;;;;5049693;28;19959;-85
2024/02/21 08:37:38;;;;;;;;;;;;;;;;;;5050249;28;19916;-85
2024/02/21 08:40:08;;;;;;;;;;;;;;;;;;5050210;28;19970;-85
2024/02/21 08:42:34;;;;;;;;;;;;;;;;;;5036821;28;19913;-84
2024/02/21 08:44:59;;;;;;;;;;;;;;;;;;5061239;28;19915;-85
2024/02/21 08:47:25;;;;;;;;;;;;;;;;;;5054986;28;19944;-89
2024/02/21 08:49:51;;;;;;;;;;;;;;;;;;5056892;28;20359;-86
2024/02/21 08:52:17;;;;;;;;;;;;;;;;;;5057510;28;20119;-85
2024/02/21 08:54:43;;;;;;;;;;;;;;;;;;5055969;28;19913;-83
2024/02/21 08:57:09;;;;;;;;;;;;;;;;;;5052584;28;20425;-83
2024/02/21 08:59:34;;;;;;;;;;;;;;;;;;5057212;28;19917;-85
2024/02/21 09:02:02;;;;;;;;;;;;;;;;;;5062682;28;19913;-87
2024/02/21 09:04:28;;;;;;;;;;;;;;;;;;5063531;28;20363;-87
2024/02/21 09:06:54;;;;;;;;;;;;;;;;;;5197791;22;19954;-86
2024/02/21 09:09:20;;;;;;;;;;;;;;;;;;5102348;28;19995;-90
2024/02/21 09:11:46;;;;;;;;;;;;;;;;;;5116630;28;19932;-91
2024/02/21 09:14:11;;;;;;;;;;;;;;;;;;5116397;28;19904;-91
2024/02/21 09:16:37;;;;;;;;;;;;;;;;;;5118647;28;19971;-90
2024/02/21 09:19:03;;;;;;;;;;;;;;;;;;5098044;28;19916;-91
2024/02/21 09:21:29;;;;;;;;;;;;;;;;;;5118225;28;19919;-93
2024/02/21 09:23:55;;;;;;;;;;;;;;;;;;5103282;28;19908;-90
2024/02/21 09:26:21;;;;;;;;;;;;;;;;;;5113030;28;19896;-91
2024/02/21 09:31:23;;;;;;;;;;;;;;;;;;5080173;22;19932;-91
2024/02/21 09:33:48;;;;;;;;;;;;;;;;;;5123844;23;19924;-92
2024/02/21 09:36:17;;;;;;;;;;;;;;;;;;5065218;28;19948;-90
2024/02/21 09:38:43;;;;;;;;;;;;;;;;;;5075690;28;19955;-91
2024/02/21 09:41:09;;;;;;;;;;;;;;;;;;5307346;22;19925;-91
2024/02/21 09:43:35;;;;;;;;;;;;;;;;;;5064033;28;19917;-91
2024/02/21 09:46:03;;;;;;;;;;;;;;;;;;5054391;28;19931;-93
2024/02/21 09:48:29;;;;;;;;;;;;;;;;;;5067432;28;19940;-93
2024/02/21 09:50:55;;;;;;;;;;;;;;;;;;5069754;28;20283;-91
2024/02/21 09:53:21;;;;;;;;;;;;;;;;;;5060605;28;19913;-91
2024/02/21 09:55:47;;;;;;;;;;;;;;;;;;5071758;28;19937;-90
2024/02/21 09:58:20;;;;;;;;;;;;;;;;;;5120472;22;19981;-91
2024/02/21 10:00:46;;;;;;;;;;;;;;;;;;5062540;28;19913;-89
2024/02/21 10:03:13;;;;;;;;;;;;;;;;;;5228496;22;21593;-91
2024/02/21 10:05:40;;;;;;;;;;;;;;;;;;5101706;28;19979;-91
2024/02/21 10:08:06;;;;;;;;;;;;;;;;;;5109829;28;19897;-92
2024/02/21 10:10:32;;;;;;;;;;;;;;;;;;5112739;28;19920;-91
2024/02/21 10:12:58;;;;;;;;;;;;;;;;;;5092068;28;19913;-91
2024/02/21 10:15:24;;;;;;;;;;;;;;;;;;5111292;28;19999;-92
2024/02/21 10:17:50;;;;;;;;;;;;;;;;;;5103182;28;19942;-92
2024/02/21 10:20:16;;;;;;;;;;;;;;;;;;5085442;28;19986;-92
2024/02/21 10:22:42;;;;;;;;;;;;;;;;;;5104195;28;19912;-90
2024/02/21 10:25:08;;;;;;;;;;;;;;;;;;5089711;28;19919;-93
2024/02/21 10:27:34;;;;;;;;;;;;;;;;;;5106718;28;19916;-92
2024/02/21 10:30:02;;;;;;;;;;;;;;;;;;5105686;28;19912;-92
2024/02/21 10:32:31;;;;;;;;;;;;;;;;;;5106191;28;19933;-91
2024/02/21 10:34:57;;;;;;;;;;;;;;;;;;5099375;28;19916;-91
2024/02/21 10:37:23;;;;;;;;;;;;;;;;;;5094814;28;19931;-92
2024/02/21 10:39:49;;;;;;;;;;;;;;;;;;5085768;28;19916;-90
2024/02/21 10:42:16;;;;;;;;;;;;;;;;;;5081106;28;19919;-89
2024/02/21 10:44:42;;;;;;;;;;;;;;;;;;5086276;28;20004;-89
2024/02/21 10:47:10;;;;;;;;;;;;;;;;;;5079654;28;19913;-89
2024/02/21 10:49:36;;;;;;;;;;;;;;;;;;5090524;28;19903;-91
2024/02/21 10:52:03;;;;;;;;;;;;;;;;;;5071023;28;19964;-89
2024/02/21 10:54:31;;;;;;;;;;;;;;;;;;5087579;28;19923;-90
2024/02/21 10:56:57;;;;;;;;;;;;;;;;;;5079490;28;19924;-90
2024/02/21 10:59:23;;;;;;;;;;;;;;;;;;5080376;28;19912;-91
2024/02/21 11:01:49;;;;;;;;;;;;;;;;;;5089025;28;19987;-89
2024/02/21 11:04:15;;;;;;;;;;;;;;;;;;5083484;28;19916;-90
2024/02/21 11:06:41;;;;;;;;;;;;;;;;;;5087017;28;19939;-90
2024/02/21 11:09:07;;;;;;;;;;;;;;;;;;5079846;28;19953;-91
2024/02/21 11:11:33;;;;;;;;;;;;;;;;;;5087772;28;19929;-91
2024/02/21 11:13:59;;;;;;;;;;;;;;;;;;5083982;28;19935;-92
2024/02/21 11:16:25;;;;;;;;;;;;;;;;;;5082309;28;19916;-90
2024/02/21 11:18:51;;;;;;;;;;;;;;;;;;5084336;28;19901;-93
2024/02/21 11:21:17;;;;;;;;;;;;;;;;;;5078325;28;19913;-91
2024/02/21 11:23:42;;;;;;;;;;;;;;;;;;5095156;28;19916;-92
2024/02/21 11:26:08;;;;;;;;;;;;;;;;;;5074181;28;19909;-91
2024/02/21 11:28:36;;;;;;;;;;;;;;;;;;5086598;28;19919;-90
2024/02/21 11:31:02;;;;;;;;;;;;;;;;;;5073409;28;19912;-91
2024/02/21 11:33:28;;;;;;;;;;;;;;;;;;5083434;28;19921;-90
2024/02/21 11:35:54;;;;;;;;;;;;;;;;;;5086638;28;19917;-91
2024/02/21 11:38:41;;;;;;;;;;;;;;;;;;5076606;28;19927;-92
2024/02/21 11:41:07;;;;;;;;;;;;;;;;;;5056141;28;19921;-92
2024/02/21 11:43:33;;;;;;;;;;;;;;;;;;5054011;28;19968;-91
2024/02/21 11:45:59;;;;;;;;;;;;;;;;;;5053216;28;19959;-92
2024/02/21 11:48:25;;;;;;;;;;;;;;;;;;5053707;28;19940;-93
2024/02/21 11:50:51;;;;;;;;;;;;;;;;;;5063502;28;19917;-89
2024/02/21 11:53:17;;;;;;;;;;;;;;;;;;5064522;28;19924;-90
2024/02/21 11:55:43;;;;;;;;;;;;;;;;;;5062784;28;19920;-92
2024/02/21 11:58:09;;;;;;;;;;;;;;;;;;5059848;28;19924;-90
2024/02/21 12:00:35;;;;;;;;;;;;;;;;;;5056683;28;20006;-90
2024/02/21 12:03:02;;;;;;;;;;;;;;;;;;5057159;28;19984;-89
2024/02/21 12:05:28;;;;;;;;;;;;;;;;;;5059171;28;19920;-89
2024/02/21 12:07:55;;;;;;;;;;;;;;;;;;5052886;28;19913;-90
2024/02/21 12:10:20;;;;;;;;;;;;;;;;;;5051021;28;19917;-90
2024/02/21 12:12:46;;;;;;;;;;;;;;;;;;5054135;28;19936;-90
2024/02/21 12:15:12;;;;;;;;;;;;;;;;;;5060655;28;19924;-89
2024/02/21 12:17:38;;;;;;;;;;;;;;;;;;5045576;28;20007;-89
2024/02/21 12:20:11;;;;;;;;;;;;;;;;;;5058647;28;19940;-88
2024/02/21 12:22:37;;;;;;;;;;;;;;;;;;5062350;28;19948;-90
2024/02/21 12:25:04;;;;;;;;;;;;;;;;;;5063936;28;19909;-89
2024/02/21 12:27:30;;;;;;;;;;;;;;;;;;5060615;28;19912;-90
2024/02/21 12:29:55;;;;;;;;;;;;;;;;;;5048325;28;19964;-89
2024/02/21 12:32:21;;;;;;;;;;;;;;;;;;5049503;28;19914;-90
2024/02/21 12:34:48;;;;;;;;;;;;;;;;;;5050140;28;19924;-90
2024/02/21 12:37:15;;;;;;;;;;;;;;;;;;5053275;28;19921;-89
2024/02/21 12:39:41;;;;;;;;;;;;;;;;;;5049250;28;19913;-90
2024/02/21 12:42:09;;;;;;;;;;;;;;;;;;5041689;28;19913;-90
2024/02/21 12:44:35;;;;;;;;;;;;;;;;;;5050089;28;19913;-90
2024/02/21 12:47:01;;;;;;;;;;;;;;;;;;5048583;28;19914;-89
2024/02/21 12:49:29;;;;;;;;;;;;;;;;;;5024157;28;20024;-86
2024/02/21 12:51:55;;;;;;;;;;;;;;;;;;5029701;28;19920;-86
2024/02/21 12:54:22;;;;;;;;;;;;;;;;;;5024607;28;19917;-86
2024/02/21 12:56:47;;;;;;;;;;;;;;;;;;5032646;28;19953;-91
2024/02/21 12:59:13;;;;;;;;;;;;;;;;;;5039308;28;19924;-91
2024/02/21 13:01:39;;;;;;;;;;;;;;;;;;5044985;28;19921;-88
2024/02/21 13:04:05;;;;;;;;;;;;;;;;;;5029991;28;19913;-90
2024/02/21 13:06:31;;;;;;;;;;;;;;;;;;5040554;28;19920;-89
2024/02/21 13:08:59;;;;;;;;;;;;;;;;;;5029076;28;19956;-89
2024/02/21 13:11:26;;;;;;;;;;;;;;;;;;5035983;28;19909;-89
2024/02/21 13:13:53;;;;;;;;;;;;;;;;;;5030894;28;20004;-89
2024/02/21 13:16:19;;;;;;;;;;;;;;;;;;5035931;28;19913;-89
2024/02/21 13:18:47;;;;;;;;;;;;;;;;;;5030733;28;19967;-89
2024/02/21 13:21:13;;;;;;;;;;;;;;;;;;5032347;28;19898;-89
2024/02/21 13:23:39;;;;;;;;;;;;;;;;;;5029109;28;20379;-90
2024/02/21 13:26:05;;;;;;;;;;;;;;;;;;5037483;28;19913;-89
2024/02/21 13:28:31;;;;;;;;;;;;;;;;;;5035719;28;19921;-91
2024/02/21 13:30:57;;;;;;;;;;;;;;;;;;5038404;28;20004;-88
2024/02/21 13:33:23;;;;;;;;;;;;;;;;;;5033838;28;19918;-89
2024/02/21 13:36:10;;;;;;;;;;;;;;;;;;5366325;22;20015;-90
2024/02/21 13:38:35;;;;;;;;;;;;;;;;;;5067082;28;19901;-91
2024/02/21 13:41:17;;;;;;;;;;;;;;;;;;;;;
2024/02/21 13:43:46;;;;;;;;;;;;;;;;;;5077802;28;19952;-91
2024/02/21 13:46:12;;;;;;;;;;;;;;;;;;5063958;28;19916;-89
2024/02/21 13:48:38;;;;;;;;;;;;;;;;;;5062960;28;20407;-91
2024/02/21 13:51:04;;;;;;;;;;;;;;;;;;5053631;28;19913;-91
2024/02/21 13:53:29;;;;;;;;;;;;;;;;;;5061463;28;19912;-89
2024/02/21 13:55:57;;;;;;;;;;;;;;;;;;5067068;28;19917;-92
2024/02/21 13:58:38;;;;;;;;;;;;;;;;;;5062635;28;19924;-93
2024/02/21 14:01:04;;;;;;;;;;;;;;;;;;5079277;28;19921;-91
2024/02/21 14:03:30;;;;;;;;;;;;;;;;;;5060179;28;19912;-88
2024/02/21 14:05:56;;;;;;;;;;;;;;;;;;5060149;28;19917;-90
2024/02/21 14:10:59;;;;;;;;;;;;;;;;;;5324812;22;19957;-89
2024/02/21 14:13:25;;;;;;;;;;;;;;;;;;5078128;28;19959;-91
2024/02/21 14:15:50;;;;;;;;;;;;;;;;;;5075683;28;19958;-87
2024/02/21 14:18:16;;;;;;;;;;;;;;;;;;5055943;28;20383;-87
2024/02/21 14:20:42;;;;;;;;;;;;;;;;;;5071978;28;20374;-90
2024/02/21 14:23:08;;;;;;;;;;;;;;;;;;5066528;28;19916;-86
2024/02/21 14:25:34;;;;;;;;;;;;;;;;;;5069225;28;19920;-85
2024/02/21 14:28:03;;;;;;;;;;;;;;;;;;5070509;28;19923;-87
2024/02/21 14:30:28;;;;;;;;;;;;;;;;;;5049483;28;19919;-85
2024/02/21 14:32:54;;;;;;;;;;;;;;;;;;5072781;28;19921;-89
2024/02/21 14:35:20;;;;;;;;;;;;;;;;;;5070664;28;19943;-87
2024/02/21 14:37:48;;;;;;;;;;;;;;;;;;5074005;28;19995;-88
2024/02/21 14:40:14;;;;;;;;;;;;;;;;;;5070167;28;19912;-86
2024/02/21 14:42:40;;;;;;;;;;;;;;;;;;5069891;28;20003;-87
2024/02/21 14:45:06;;;;;;;;;;;;;;;;;;5070475;28;19958;-91
2024/02/21 14:47:32;;;;;;;;;;;;;;;;;;5069769;28;19917;-88
2024/02/21 14:49:58;;;;;;;;;;;;;;;;;;5053184;28;20303;-86
2024/02/21 14:52:24;;;;;;;;;;;;;;;;;;5050268;28;20035;-86
2024/02/21 14:54:51;;;;;;;;;;;;;;;;;;5076521;28;19920;-88
2024/02/21 14:57:17;;;;;;;;;;;;;;;;;;5083452;28;20100;-89
2024/02/21 14:59:43;;;;;;;;;;;;;;;;;;5078310;28;19913;-90
2024/02/21 15:02:10;;;;;;;;;;;;;;;;;;5077112;28;20390;-90
2024/02/21 15:04:36;;;;;;;;;;;;;;;;;;5081081;28;19912;-92
2024/02/21 15:07:02;;;;;;;;;;;;;;;;;;5077656;28;19916;-90
2024/02/21 15:09:28;;;;;;;;;;;;;;;;;;5086867;28;19913;-92
2024/02/21 15:11:54;;;;;;;;;;;;;;;;;;5088201;28;20386;-91
2024/02/21 15:14:20;;;;;;;;;;;;;;;;;;5065324;28;20090;-90
2024/02/21 15:16:46;;;;;;;;;;;;;;;;;;5083466;28;19958;-92
2024/02/21 15:19:12;;;;;;;;;;;;;;;;;;5077858;28;19920;-91
2024/02/21 15:21:38;;;;;;;;;;;;;;;;;;5072366;28;19963;-89
2024/02/21 15:29:24;;;;;;;;;;;;;;;;;;4644743;26;19928;-90
2024/02/21 15:31:53;;;;;;;;;;;;;;;;;;5068027;28;19916;-88
2024/02/21 15:34:19;;;;;;;;;;;;;;;;;;5066938;28;20429;-85
2024/02/21 15:36:45;;;;;;;;;;;;;;;;;;5130576;22;19931;-84
2024/02/21 15:39:11;;;;;;;;;;;;;;;;;;5091222;28;19912;-88
2024/02/21 15:41:37;;;;;;;;;;;;;;;;;;5087808;28;19916;-87
2024/02/21 15:44:04;;;;;;;;;;;;;;;;;;5083817;28;19919;-89
2024/02/21 15:46:31;;;;;;;;;;;;;;;;;;5090880;28;20002;-89
2024/02/21 15:48:57;;;;;;;;;;;;;;;;;;5092567;28;20233;-90
2024/02/21 15:51:23;;;;;;;;;;;;;;;;;;5094804;28;19920;-90
2024/02/21 15:53:49;;;;;;;;;;;;;;;;;;5091886;28;20287;-86
2024/02/21 15:56:15;;;;;;;;;;;;;;;;;;5092878;28;19926;-83
2024/02/21 15:58:41;;;;;;;;;;;;;;;;;;5092486;28;19938;-88
2024/02/21 16:01:06;;;;;;;;;;;;;;;;;;5080806;28;19912;-87
2024/02/21 16:03:32;;;;;;;;;;;;;;;;;;5082744;28;19908;-89
2024/02/21 16:05:58;;;;;;;;;;;;;;;;;;5095279;28;19924;-90
2024/02/21 16:08:24;;;;;;;;;;;;;;;;;;5106734;28;20041;-89
2024/02/21 16:10:50;;;;;;;;;;;;;;;;;;5106481;28;19966;-90
2024/02/21 16:13:16;;;;;;;;;;;;;;;;;;5111378;28;19987;-92
2024/02/21 16:15:42;;;;;;;;;;;;;;;;;;5115891;28;19896;-92
2024/02/21 16:18:09;;;;;;;;;;;;;;;;;;5102122;28;19932;-90
2024/02/21 16:20:34;;;;;;;;;;;;;;;;;;5192190;22;19928;-89
2024/02/21 16:23:03;;;;;;;;;;;;;;;;;;5056554;28;19913;-87
2024/02/21 16:25:28;;;;;;;;;;;;;;;;;;5045717;28;19931;-89
2024/02/21 16:27:54;;;;;;;;;;;;;;;;;;5050790;28;19916;-87
2024/02/21 16:30:23;;;;;;;;;;;;;;;;;;5047963;28;20370;-88
2024/02/21 16:32:49;;;;;;;;;;;;;;;;;;5054429;28;20379;-88
2024/02/21 16:35:14;;;;;;;;;;;;;;;;;;5043807;28;19943;-87
2024/02/21 16:37:40;;;;;;;;;;;;;;;;;;5029967;28;19917;-88
2024/02/21 16:40:06;;;;;;;;;;;;;;;;;;5033900;28;19941;-87
2024/02/21 16:42:33;;;;;;;;;;;;;;;;;;5031582;28;19940;-87
2024/02/21 16:45:00;;;;;;;;;;;;;;;;;;5031575;28;19958;-87
2024/02/21 16:47:26;;;;;;;;;;;;;;;;;;5034300;28;19913;-87
2024/02/21 16:49:52;;;;;;;;;;;;;;;;;;5032866;28;19920;-88